createdAt,value
2022-12-01T03:10:43.504Z,93.56
2022-12-01T03:11:49.200Z,93.55
2022-12-01T03:13:15.776Z,93.27
2022-12-01T03:14:21.417Z,93.24
2022-12-01T03:15:36.103Z,93.08
2022-12-01T03:16:45.597Z,92.94
2022-12-01T03:18:10.895Z,92.98
2022-12-01T03:19:19.671Z,92.93
2022-12-01T03:20:41.877Z,92.76
2022-12-01T03:21:53.738Z,92.73
2022-12-01T03:23:02.085Z,92.76
2022-12-01T03:24:10.450Z,92.73
2022-12-01T03:25:14.322Z,92.76
2022-12-01T03:26:20.370Z,92.66
2022-12-01T03:27:26.091Z,92.64
2022-12-01T03:28:31.733Z,92.61
2022-12-01T03:29:43.523Z,92.61
2022-12-01T03:30:48.933Z,92.51
2022-12-01T03:31:57.427Z,92.50
2022-12-01T03:33:11.647Z,92.48
2022-12-01T03:34:29.093Z,92.38
2022-12-01T03:35:34.791Z,92.31
2022-12-01T03:36:43.615Z,92.21
2022-12-01T03:37:58.279Z,92.08
2022-12-01T03:39:03.929Z,92.02
2022-12-01T03:40:10.078Z,91.95
2022-12-01T03:41:15.757Z,91.76
2022-12-01T03:42:21.527Z,91.83
2022-12-01T03:43:29.972Z,91.77
2022-12-01T03:44:38.667Z,91.78
2022-12-01T03:45:59.768Z,91.82
2022-12-01T03:47:11.543Z,91.85
2022-12-01T03:48:13.829Z,91.81
2022-12-01T03:49:17.872Z,91.81
2022-12-01T03:50:21.582Z,91.66
2022-12-01T03:51:32.769Z,91.45
2022-12-01T03:52:41.355Z,91.49
2022-12-01T03:53:47.032Z,91.55
2022-12-01T03:54:58.753Z,91.55
2022-12-01T03:56:03.326Z,91.63
2022-12-01T03:57:09.002Z,91.88
2022-12-01T03:59:31.605Z,92.09
2022-12-01T04:00:33.816Z,92.06
2022-12-01T04:01:36.148Z,91.95
2022-12-01T04:02:38.955Z,92.03
2022-12-01T04:03:40.981Z,92.10
2022-12-01T04:04:42.832Z,92.09
2022-12-01T04:05:46.445Z,92.08
2022-12-01T04:06:50.392Z,92.12
2022-12-01T04:07:52.987Z,92.11
2022-12-01T04:08:54.974Z,92.12
2022-12-01T04:09:56.976Z,92.20
2022-12-01T04:10:59.776Z,92.21
2022-12-01T04:12:03.636Z,92.17
2022-12-01T04:13:05.538Z,92.16
2022-12-01T04:14:07.399Z,92.15
2022-12-01T04:15:11.806Z,92.08
2022-12-01T04:16:13.826Z,91.95
2022-12-01T04:17:16.024Z,91.96
2022-12-01T04:18:18.921Z,92.06
2022-12-01T04:19:21.330Z,92.09
2022-12-01T04:20:23.383Z,92.03
2022-12-01T04:21:25.249Z,91.99
2022-12-01T04:22:27.109Z,92.04
2022-12-01T04:23:29.084Z,91.99
2022-12-01T04:24:30.956Z,91.96
2022-12-01T04:25:32.821Z,91.91
2022-12-01T04:26:36.677Z,92.00
2022-12-01T04:27:39.957Z,91.97
2022-12-01T04:28:41.953Z,91.97
2022-12-01T04:29:43.894Z,91.93
2022-12-01T04:30:46.788Z,91.92
2022-12-01T04:31:48.702Z,91.88
2022-12-01T04:32:52.362Z,91.71
2022-12-01T04:33:55.682Z,91.66
2022-12-01T04:34:57.558Z,91.60
2022-12-01T04:36:00.380Z,91.70
2022-12-01T04:37:04.047Z,91.65
2022-12-01T04:38:07.034Z,91.67
2022-12-01T04:39:08.899Z,91.61
2022-12-01T04:41:01.398Z,91.58
2022-12-01T04:42:04.299Z,91.52
2022-12-01T04:43:06.236Z,91.53
2022-12-01T04:44:10.575Z,91.45
2022-12-01T04:45:12.539Z,91.41
2022-12-01T04:46:14.556Z,91.39
2022-12-01T04:47:17.151Z,91.39
2022-12-01T04:48:19.045Z,91.35
2022-12-01T04:49:21.814Z,91.44
2022-12-01T04:50:23.932Z,91.54
2022-12-01T04:51:27.561Z,91.54
2022-12-01T04:52:35.041Z,91.49
2022-12-01T04:53:34.998Z,91.48
2022-12-01T04:54:36.882Z,91.48
2022-12-01T04:55:38.749Z,91.44
2022-12-01T04:56:41.320Z,91.55
2022-12-01T04:57:43.203Z,91.54
2022-12-01T04:58:45.749Z,91.62
2022-12-01T04:59:47.972Z,91.57
2022-12-01T05:00:50.483Z,91.57
2022-12-01T05:01:52.894Z,91.41
2022-12-01T05:02:54.909Z,91.41
2022-12-01T05:03:57.051Z,91.45
2022-12-01T05:04:58.949Z,91.53
2022-12-01T05:06:06.891Z,91.66
2022-12-01T05:07:08.856Z,91.60
2022-12-01T05:08:11.357Z,91.56
2022-12-01T05:09:17.547Z,91.62
2022-12-01T05:10:19.694Z,91.64
2022-12-01T05:11:22.822Z,91.59
2022-12-01T05:12:25.596Z,91.59
2022-12-01T05:13:28.430Z,91.54
2022-12-01T05:14:30.422Z,91.52
2022-12-01T05:15:32.376Z,91.51
2022-12-01T05:16:35.448Z,91.52
2022-12-01T05:17:37.823Z,91.47
2022-12-01T05:18:39.979Z,91.42
2022-12-01T05:19:42.018Z,91.45
2022-12-01T05:20:44.179Z,91.41
2022-12-01T05:21:48.344Z,91.37
2022-12-01T05:23:05.176Z,91.45
2022-12-01T05:23:54.034Z,91.47
2022-12-01T05:24:55.899Z,91.49
2022-12-01T05:25:58.044Z,91.54
2022-12-01T05:27:00.225Z,91.57
2022-12-01T05:28:03.408Z,91.58
2022-12-01T05:29:05.295Z,91.54
2022-12-01T05:30:09.204Z,91.54
2022-12-01T05:31:11.118Z,91.46
2022-12-01T05:32:14.586Z,91.52
2022-12-01T05:33:16.900Z,91.54
2022-12-01T05:34:19.047Z,91.50
2022-12-01T05:35:20.914Z,91.51
2022-12-01T05:36:23.529Z,91.36
2022-12-01T05:37:25.390Z,91.42
2022-12-01T05:38:27.232Z,91.40
2022-12-01T05:39:29.136Z,91.31
2022-12-01T05:40:31.341Z,91.19
2022-12-01T05:41:33.477Z,91.09
2022-12-01T05:42:35.542Z,90.89
2022-12-01T05:43:37.406Z,90.90
2022-12-01T05:44:39.382Z,90.89
2022-12-01T05:45:41.279Z,90.84
2022-12-01T05:46:43.327Z,90.71
2022-12-01T05:47:45.187Z,90.89
2022-12-01T05:48:47.068Z,90.97
2022-12-01T05:49:49.159Z,90.90
2022-12-01T05:50:51.743Z,90.92
2022-12-01T05:51:53.835Z,90.95
2022-12-01T05:52:55.699Z,90.96
2022-12-01T05:54:00.731Z,90.94
2022-12-01T05:55:04.868Z,91.03
2022-12-01T05:56:07.700Z,91.00
2022-12-01T05:57:09.633Z,91.04
2022-12-01T05:58:11.753Z,91.08
2022-12-01T05:59:13.635Z,90.87
2022-12-01T06:00:17.252Z,90.78
2022-12-01T06:01:19.149Z,90.70
2022-12-01T06:02:21.054Z,90.63
2022-12-01T06:03:23.009Z,90.70
2022-12-01T06:04:25.187Z,90.76
2022-12-01T06:05:28.030Z,90.87
2022-12-01T06:06:30.004Z,90.93
2022-12-01T06:07:31.992Z,90.87
2022-12-01T06:08:34.897Z,90.87
2022-12-01T06:09:36.807Z,90.75
2022-12-01T06:10:38.783Z,90.70
2022-12-01T06:11:40.639Z,90.65
2022-12-01T06:12:42.515Z,90.55
2022-12-01T06:13:44.395Z,90.45
2022-12-01T06:14:46.274Z,90.37
2022-12-01T06:17:11.373Z,90.27
2022-12-01T06:18:13.230Z,90.04
2022-12-01T06:19:15.088Z,90.02
2022-12-01T06:20:17.315Z,89.87
2022-12-01T06:21:19.153Z,89.72
2022-12-01T06:22:21.012Z,89.57
2022-12-01T06:23:27.548Z,89.36
2022-12-01T06:24:27.277Z,89.17
2022-12-01T06:25:29.186Z,89.08
2022-12-01T06:26:31.159Z,88.97
2022-12-01T06:27:32.999Z,88.83
2022-12-01T06:28:36.076Z,88.40
2022-12-01T06:29:42.085Z,88.40
2022-12-01T12:16:45.856Z,78.31
2022-12-01T12:18:26.990Z,78.16
2022-12-01T12:19:34.281Z,78.11
2022-12-01T12:20:46.536Z,78.13
2022-12-01T12:22:08.797Z,78.01
2022-12-01T12:23:39.019Z,77.91
2022-12-01T12:24:50.290Z,77.92
2022-12-01T12:25:59.221Z,77.71
2022-12-01T12:27:26.170Z,77.58
2022-12-01T12:28:53.531Z,77.62
2022-12-01T12:30:23.734Z,77.59
2022-12-01T12:31:44.786Z,77.44
2022-12-01T12:33:16.663Z,77.63
2022-12-01T12:34:43.441Z,77.58
2022-12-01T12:35:52.218Z,77.52
2022-12-01T12:37:03.717Z,77.29
2022-12-01T12:38:26.354Z,77.17
2022-12-01T12:40:02.679Z,77.15
2022-12-01T12:42:45.164Z,76.89
2022-12-01T12:44:09.205Z,76.83
2022-12-01T12:45:14.885Z,76.42
2022-12-01T12:46:29.594Z,76.29
2022-12-01T12:47:47.061Z,76.14
2022-12-01T12:50:28.644Z,76.21
2022-12-01T12:51:44.657Z,76.21
2022-12-01T12:52:50.335Z,76.36
2022-12-01T12:54:14.011Z,76.47
2022-12-01T12:55:34.262Z,76.55
2022-12-01T12:56:36.883Z,76.71
2022-12-01T12:57:42.532Z,76.79
2022-12-01T12:58:51.094Z,76.88
2022-12-01T13:00:05.846Z,77.18
2022-12-01T13:01:14.593Z,77.51
2022-12-01T13:03:53.064Z,77.15
2022-12-01T13:06:10.512Z,77.18
2022-12-01T13:07:20.229Z,77.32
2022-12-01T13:08:41.537Z,77.53
2022-12-01T13:09:47.518Z,77.59
2022-12-01T13:10:59.768Z,77.83
2022-12-01T13:12:08.379Z,77.98
2022-12-01T13:13:25.619Z,78.02
2022-12-01T13:14:31.282Z,78.08
2022-12-01T13:15:34.645Z,78.43
2022-12-01T13:16:40.520Z,78.40
2022-12-01T13:17:55.339Z,78.54
2022-12-01T13:19:12.858Z,78.54
2022-12-01T13:20:17.893Z,78.50
2022-12-01T13:21:21.679Z,78.48
2022-12-01T13:22:33.358Z,78.58
2022-12-01T13:23:36.969Z,78.81
2022-12-01T13:24:39.430Z,79.02
2022-12-01T13:25:43.561Z,79.04
2022-12-01T13:26:49.771Z,79.22
2022-12-01T13:27:53.017Z,79.38
2022-12-01T13:28:57.010Z,79.29
2022-12-01T13:29:59.900Z,79.29
2022-12-01T13:31:10.980Z,79.30
2022-12-01T13:32:34.951Z,79.34
2022-12-01T13:33:39.286Z,79.27
2022-12-01T13:34:42.983Z,79.53
2022-12-01T13:36:07.052Z,79.72
2022-12-01T13:36:54.795Z,80.02
2022-12-01T13:38:17.312Z,80.18
2022-12-01T13:39:29.654Z,80.13
2022-12-01T13:40:31.768Z,80.18
2022-12-01T13:41:36.759Z,80.39
2022-12-01T13:42:39.971Z,80.47
2022-12-01T13:44:03.421Z,80.49
2022-12-01T13:45:19.872Z,80.54
2022-12-01T13:46:26.543Z,80.51
2022-12-01T13:47:41.192Z,80.59
2022-12-01T13:48:46.820Z,80.80
2022-12-01T13:49:51.758Z,80.60
2022-12-01T13:50:58.513Z,80.58
2022-12-01T13:52:23.142Z,80.55
2022-12-01T13:53:28.558Z,80.56
2022-12-01T13:54:34.195Z,80.78
2022-12-01T13:55:39.847Z,80.90
2022-12-01T13:56:45.421Z,80.94
2022-12-01T13:57:51.035Z,81.16
2022-12-01T13:58:54.370Z,81.17
2022-12-01T14:00:03.026Z,81.26
2022-12-01T14:01:24.177Z,81.14
2022-12-01T14:02:29.475Z,81.30
2022-12-01T14:03:34.558Z,81.43
2022-12-01T14:04:36.681Z,81.43
2022-12-01T14:05:54.326Z,81.42
2022-12-01T14:07:15.136Z,81.42
2022-12-01T14:08:30.117Z,81.41
2022-12-01T14:09:38.415Z,81.59
2022-12-01T14:10:40.726Z,81.80
2022-12-01T14:11:59.215Z,81.86
2022-12-01T14:13:05.913Z,81.86
2022-12-01T14:14:25.591Z,81.93
2022-12-01T14:15:41.329Z,81.92
2022-12-01T14:16:49.156Z,82.04
2022-12-01T14:18:09.676Z,82.14
2022-12-01T14:19:50.884Z,82.13
2022-12-01T14:20:53.423Z,82.12
2022-12-01T14:21:56.465Z,82.10
2022-12-01T15:03:32.012Z,84.78
2022-12-01T15:04:32.213Z,84.79
2022-12-01T15:05:40.207Z,84.80
2022-12-01T15:06:43.310Z,84.63
2022-12-01T15:07:49.597Z,84.56
2022-12-01T15:10:26.093Z,84.28
2022-12-01T15:11:28.263Z,84.09
2022-12-01T15:12:31.212Z,83.92
2022-12-01T15:13:48.965Z,83.77
2022-12-01T15:14:51.246Z,83.67
2022-12-01T15:16:02.794Z,83.62
2022-12-01T15:17:06.396Z,83.58
2022-12-01T15:18:12.052Z,83.57
2022-12-01T15:19:40.623Z,83.32
2022-12-01T15:20:47.668Z,83.21
2022-12-01T15:21:46.528Z,82.90
2022-12-01T15:22:49.736Z,82.88
2022-12-01T15:23:53.966Z,82.92
2022-12-01T15:25:14.250Z,82.88
2022-12-01T15:27:31.924Z,82.93
2022-12-01T15:28:35.770Z,82.83
2022-12-01T15:29:43.697Z,82.72
2022-12-01T15:30:49.578Z,82.76
2022-12-01T15:32:00.956Z,82.73
2022-12-01T15:33:04.962Z,82.56
2022-12-01T15:34:10.626Z,82.53
2022-12-01T18:20:29.150Z,80.73
2022-12-01T18:22:40.550Z,80.50
2022-12-01T18:23:52.127Z,80.34
2022-12-01T18:24:54.105Z,80.29
2022-12-01T18:25:55.938Z,80.29
2022-12-01T18:26:57.991Z,80.33
2022-12-01T18:28:02.002Z,80.35
2022-12-01T18:29:09.957Z,80.21
2022-12-01T18:30:13.509Z,80.28
2022-12-01T18:31:15.906Z,80.38
2022-12-01T18:32:17.968Z,80.25
2022-12-01T18:33:19.831Z,80.20
2022-12-01T18:34:22.212Z,80.30
2022-12-01T18:35:28.829Z,80.33
2022-12-01T18:36:31.246Z,80.32
2022-12-01T18:37:33.251Z,80.39
2022-12-01T18:38:35.142Z,80.50
2022-12-01T18:39:37.007Z,80.46
2022-12-01T18:40:39.196Z,80.49
2022-12-01T18:41:41.070Z,80.51
2022-12-01T18:42:43.022Z,80.50
2022-12-01T18:43:46.545Z,80.50
2022-12-01T18:44:48.744Z,80.62
2022-12-01T18:45:50.903Z,80.70
2022-12-01T18:46:52.928Z,80.67
2022-12-01T18:47:54.922Z,80.82
2022-12-01T18:48:57.970Z,80.77
2022-12-01T18:49:59.931Z,80.63
2022-12-01T18:51:05.277Z,80.63
2022-12-01T18:52:07.201Z,80.60
2022-12-01T18:53:09.061Z,80.49
2022-12-01T18:54:14.906Z,80.47
2022-12-01T18:55:17.343Z,80.43
2022-12-01T18:56:19.871Z,80.45
2022-12-01T18:57:21.988Z,80.41
2022-12-01T18:58:24.134Z,80.39
2022-12-01T18:59:26.158Z,80.34
2022-12-01T19:00:28.925Z,80.34
2022-12-01T19:01:34.317Z,80.40
2022-12-01T19:02:36.695Z,80.40
2022-12-01T19:03:39.106Z,80.39
2022-12-01T19:04:41.202Z,80.37
2022-12-01T19:05:43.065Z,80.29
2022-12-01T19:06:46.058Z,80.27
2022-12-01T19:07:48.775Z,80.27
2022-12-01T19:08:52.146Z,80.27
2022-12-01T19:09:54.149Z,80.25
2022-12-01T19:11:01.618Z,80.22
2022-12-01T19:12:03.767Z,80.18
2022-12-01T19:13:05.910Z,80.00
2022-12-01T19:14:12.031Z,79.98
2022-12-01T19:15:13.916Z,79.86
2022-12-01T19:16:18.470Z,79.81
2022-12-01T19:17:20.771Z,79.63
2022-12-01T19:18:23.151Z,79.42
2022-12-01T19:19:26.205Z,79.44
2022-12-01T19:20:28.276Z,79.44
2022-12-01T19:21:30.798Z,79.35
2022-12-01T19:22:35.050Z,79.24
2022-12-01T19:23:38.580Z,79.18
2022-12-01T19:24:40.463Z,78.82
2022-12-01T19:25:42.332Z,78.73
2022-12-01T19:26:44.490Z,78.55
2022-12-01T19:27:46.728Z,78.35
2022-12-01T19:28:49.093Z,78.21
2022-12-01T19:29:51.257Z,78.11
2022-12-01T19:30:53.633Z,78.19
2022-12-01T19:31:55.563Z,78.33
2022-12-01T19:32:57.488Z,78.23
2022-12-01T19:33:59.346Z,78.10
2022-12-01T19:35:01.227Z,77.81
2022-12-01T19:36:09.658Z,77.59
2022-12-01T19:37:12.712Z,77.37
2022-12-01T19:38:14.716Z,77.45
2022-12-01T19:39:16.586Z,77.61
2022-12-01T19:40:18.557Z,77.76
2022-12-01T19:41:20.718Z,77.54
2022-12-01T19:42:22.610Z,77.54
2022-12-01T19:43:24.846Z,77.56
2022-12-01T19:44:26.710Z,77.57
2022-12-01T19:45:28.592Z,77.63
2022-12-01T19:46:30.725Z,77.53
2022-12-01T19:47:33.917Z,77.46
2022-12-01T19:48:36.401Z,77.31
2022-12-01T19:49:38.276Z,77.25
2022-12-01T19:50:40.335Z,77.17
2022-12-01T19:51:42.204Z,77.11
2022-12-01T19:52:45.893Z,77.15
2022-12-01T19:53:47.903Z,77.42
2022-12-01T19:54:50.218Z,77.50
2022-12-01T19:55:52.475Z,77.39
2022-12-01T19:56:54.432Z,77.44
2022-12-01T19:57:56.309Z,77.28
2022-12-01T19:58:58.542Z,77.25
2022-12-01T20:00:00.567Z,77.21
2022-12-01T20:01:08.213Z,77.17
2022-12-01T20:02:10.776Z,77.12
2022-12-01T20:03:12.748Z,77.18
2022-12-01T20:04:14.732Z,77.05
2022-12-01T20:05:17.724Z,76.91
2022-12-01T20:06:24.400Z,76.74
2022-12-01T20:07:26.921Z,76.55
2022-12-01T20:08:29.200Z,76.55
2022-12-01T20:09:31.327Z,76.48
2022-12-01T20:10:33.481Z,76.40
2022-12-01T20:11:36.712Z,76.29
2022-12-01T20:12:38.684Z,76.23
2022-12-01T20:13:42.695Z,76.29
2022-12-01T20:14:45.513Z,76.30
2022-12-01T20:15:47.424Z,76.25
2022-12-01T20:16:49.501Z,76.39
2022-12-01T20:17:51.608Z,76.45
2022-12-01T20:18:54.591Z,76.46
2022-12-01T20:19:56.457Z,76.52
2022-12-01T20:21:27.000Z,76.64
2022-12-01T20:22:33.589Z,76.76
2022-12-01T20:23:36.204Z,76.72
2022-12-01T20:24:38.395Z,76.80
2022-12-01T20:25:41.003Z,76.80
2022-12-01T20:26:46.709Z,76.71
2022-12-01T20:27:50.972Z,76.66
2022-12-01T20:28:52.927Z,76.50
2022-12-01T20:29:55.081Z,76.58
2022-12-01T20:30:59.135Z,76.70
2022-12-01T20:32:01.646Z,76.34
2022-12-01T20:33:03.917Z,76.11
2022-12-01T20:35:20.574Z,76.12
2022-12-01T20:36:22.870Z,76.23
2022-12-01T20:37:24.753Z,76.13
2022-12-01T20:38:27.829Z,76.16
2022-12-01T20:39:31.613Z,76.11
2022-12-01T20:40:33.638Z,76.00
2022-12-01T20:41:39.108Z,75.94
2022-12-01T20:42:42.449Z,75.91
2022-12-01T20:43:44.834Z,75.93
2022-12-01T20:44:47.278Z,75.92
2022-12-01T20:45:49.660Z,76.23
2022-12-01T20:46:52.416Z,76.21
2022-12-01T20:47:54.380Z,76.26
2022-12-01T20:48:56.542Z,76.10
2022-12-01T20:49:58.681Z,75.84
2022-12-01T20:51:02.606Z,75.75
2022-12-01T20:52:04.706Z,75.80
2022-12-01T20:53:06.774Z,75.82
2022-12-01T20:54:28.778Z,75.99
2022-12-01T20:55:15.476Z,76.13
2022-12-01T20:56:17.425Z,76.05
2022-12-01T20:57:19.389Z,75.93
2022-12-01T20:58:22.122Z,75.85
2022-12-01T20:59:24.453Z,75.71
2022-12-01T21:00:26.453Z,75.66
2022-12-01T21:01:28.472Z,75.67
2022-12-01T21:02:30.567Z,75.60
2022-12-01T21:03:32.857Z,75.48
2022-12-01T21:04:34.739Z,75.49
2022-12-01T21:05:42.054Z,75.35
2022-12-01T21:06:44.175Z,75.27
2022-12-01T21:07:46.128Z,75.22
2022-12-01T21:08:49.769Z,75.26
2022-12-01T21:09:51.654Z,75.20
2022-12-01T21:10:53.611Z,75.16
2022-12-01T21:11:58.318Z,75.16
2022-12-01T21:13:04.022Z,74.96
2022-12-01T21:14:08.232Z,75.12
2022-12-01T21:15:26.148Z,75.00
2022-12-01T21:16:32.023Z,74.95
2022-12-01T21:17:38.388Z,74.98
2022-12-01T21:18:52.853Z,75.04
2022-12-01T21:20:25.737Z,75.14
2022-12-01T21:21:30.677Z,74.72
2022-12-01T21:22:33.964Z,74.69
2022-12-01T21:23:35.850Z,74.74
2022-12-01T21:24:43.550Z,74.64
2022-12-01T21:25:43.172Z,74.65
2022-12-01T21:26:55.071Z,74.65
2022-12-01T21:28:00.894Z,74.71
2022-12-01T21:29:24.166Z,74.77
2022-12-01T21:30:26.560Z,74.65
2022-12-01T21:31:28.717Z,74.69
2022-12-01T21:32:33.647Z,74.52
2022-12-01T21:33:36.856Z,74.46
2022-12-01T21:34:38.747Z,74.30
2022-12-01T21:35:40.681Z,74.41
2022-12-01T21:36:42.670Z,74.45
2022-12-01T21:37:46.322Z,74.42
2022-12-01T21:38:51.819Z,74.34
2022-12-01T21:39:56.024Z,74.27
2022-12-01T21:40:58.033Z,74.35
2022-12-01T21:42:03.653Z,74.25
2022-12-01T21:43:11.911Z,74.21
2022-12-01T21:44:19.883Z,74.26
2022-12-01T21:45:28.067Z,74.15
2022-12-01T21:46:30.819Z,74.31
2022-12-01T21:47:34.143Z,74.13
2022-12-01T21:48:36.757Z,74.00
2022-12-01T21:49:39.117Z,73.98
2022-12-01T21:50:41.535Z,73.97
2022-12-01T21:51:44.317Z,73.80
2022-12-01T21:52:47.357Z,73.85
2022-12-01T21:53:52.446Z,73.86
2022-12-01T21:54:57.421Z,73.87
2022-12-01T21:55:59.748Z,73.90
2022-12-01T21:57:02.408Z,73.84
2022-12-01T21:58:14.008Z,73.71
2022-12-01T21:59:21.836Z,73.49
2022-12-01T22:00:36.023Z,73.63
2022-12-01T22:01:39.953Z,73.67
2022-12-01T22:02:50.465Z,73.45
2022-12-01T22:04:00.526Z,73.54
2022-12-01T22:04:59.563Z,73.36
2022-12-01T22:06:28.861Z,73.17
2022-12-01T22:07:15.286Z,73.17
2022-12-01T22:08:33.071Z,73.16
